For quick login in and fast entrance.
M’enregistrer FAQ Connexion 
Poster un nouveau sujet Répondre au sujet  [ 5 messages ] 

Dim 14 Juin 2020 12:15

 Vietnam : sortie de piste d'un Airbus de Vietjet Air
MessagePosté: Dim 14 Juin 2020 12:15 
Hors ligne
Commandant des Nuages
Commandant des Nuages
Avatar de l’utilisateur

Inscription: Lun 30 Juil 2007 22:42
Un Airbus A321 immatriculé VN-A657 de la compagnie VietJet Air opérant le vol VJ-322 de Phu Quoc à Ho Chi Minh-Ville (Vietnam) venait d'atterrir sur la piste 25L de l'aéroport de Tan Son Nhat et en est sorti pour s'immobiliser dans un sol mou et détrempé.
L'incident n'a pas fait de blessés et les passagers ont été débarqués au moyen des escaliers mobiles.
La compagnie a fait état de fortes pluies au moment de l'atterrissage de l'appareil dont des pneumatiques du train principal ont été endommagés.
Les médias locaux ont rapporté que cet incident avait entraîné une fermeture momentanée de l'aéroport.

Image
Image
Image

_________________
Il vaut mieux se taire et passer pour un con plutôt que de parler et de ne laisser aucun doute à ce sujet . (Pierre Desproges)


Modifié en dernier par MACS le Dim 14 Juin 2020 12:27, modifié 1 fois.

  
home Haut
 Profil  
Répondre en citant le message  
Aider le Site avec PayPal

Dim 14 Juin 2020 12:20

 Re: Vietnam : sortie de piste d'un Airbus de Vietjet Air
MessagePosté: Dim 14 Juin 2020 12:20 
Hors ligne
Pilote de Funiculaire
Pilote de Funiculaire
Avatar de l’utilisateur

Inscription: Mer 30 Juil 2014 12:17
Localisation: 48.927775,2.043255
le ptit coup de "Karcher" va être nécessaire avant inspection :mrgreen: :mrgreen:


  
home Haut
 Profil  
Répondre en citant le message  

Dim 14 Juin 2020 13:21

 Re: Vietnam : sortie de piste d'un Airbus de Vietjet Air
MessagePosté: Dim 14 Juin 2020 13:21 
Hors ligne
Observateur Avisé
Observateur Avisé
Avatar de l’utilisateur

Inscription: Ven 06 Jan 2012 08:21
Localisation: St No/Les Avirons
Oui, après que le monsieur aura sorti l'avion avec sa pelle.... :arrow:

_________________
Rest' zot' kaz pou totoche le virus!


  
home Haut
 Profil  
Répondre en citant le message  

Dim 14 Juin 2020 15:00

 Re: Vietnam : sortie de piste d'un Airbus de Vietjet Air
MessagePosté: Dim 14 Juin 2020 15:00 
Hors ligne
Gonfleur d'Hélice
Gonfleur d'Hélice

Inscription: Lun 07 Oct 2013 23:34
il pleuvait ,mais pas une pluie tropicale . ou un orage.. pas de traces de vents violents.



ce qui est curieux, est de voir des personnes courir vers l avion .


Mais les photos ci dessus sont trompeuses .. effets du teleobjectifs .. l avion n est pas parrallele a une sortie du runway mais bien parrallele au runway.

en fait , l avion est sorti legerement de la piste , une dizaine de metres et a roule parrallement a la piste sur quelques centaines de metres sautant par dessus les sorties du runway .. mou dur mou , il a donc eu beaucoup de chance de ne pas perdre ses trains dans son incursion hors piste.. et l etat du train droit est probablement le resultat du passage de la sortie et non d un atterissage dur.

Image
image


  
home Haut
 Profil  
Répondre en citant le message  

Dim 14 Juin 2020 15:48

 Re: Vietnam : sortie de piste d'un Airbus de Vietjet Air
MessagePosté: Dim 14 Juin 2020 15:48 
Hors ligne
Commandant des Nuages
Commandant des Nuages
Avatar de l’utilisateur

Inscription: Lun 30 Juil 2007 22:42
cildword Image a écrit:
il pleuvait ,mais pas une pluie tropicale . ou un orage.. pas de traces de vents violents.


Citation:
Tại thời điểm hạ cánh thời tiết khu vực sân bay Tân Sơn Nhất có mưa to.

http://laodongnghean.vn/17-gio-hom-nay- ... 33580.html

Citation:
Metars:
VVTS 140700Z 20008KT 5000 TSRA SCT013 SCT015CB 27/26 Q1006 NOSIG RMK CB OVER RWY=
VVTS 140630Z 21006KT 180V240 8000 -TSRA SCT015 SCT017CB 27/26 Q1006 NOSIG RMK CB OVER RWY=
COR VVTS 140600Z VRB03KT 4000 TSRA SCT013 SCT015CB 26/25 Q1006 NOSIG RMK CB OVER RWY=
VVTS 140530Z 30010G26KT 230V340 7000 2000E +SHRA SCT013 SCT015CB 26/26 Q1007 BECMG TL0550 3000 TSRA RMK CB OVER RWY=
VVTS 140500Z 29004KT 200V350 8000 -SHRA SCT015 FEW017CB 32/25 Q1006 TEMPO FM0510 TL0540 24015G28KT 3000 TSRA RMK CB OVER RW Y=
VVTS 140430Z 23004KT 160V280 9999 SCT015 FEW017TCU 32/26 Q1007 NOSIG RMK TCU/SW=
VVTS 140400Z 19005KT 120V260 9999 BKN015 31/26 Q1007 NOSIG=
COR VVTS 140330Z 23005KT 190V280 9999 BKN015 31/26 Q1007 NOSIG=
VVTS 140300Z 26004KT 200V300 9999 SCT015 31/26 Q1007 NOSIG=
VVTS 140230Z VRB01KT 9999 FEW015 BKN050 30/27 Q1008 NOSIG=
VVTS 140200Z VRB01KT 9999 SCT015 BKN050 29/26 Q1008 NOSIG=

_________________
Il vaut mieux se taire et passer pour un con plutôt que de parler et de ne laisser aucun doute à ce sujet . (Pierre Desproges)


  
home Haut
 Profil  
Répondre en citant le message  
Afficher les messages postés depuis:  Trier par  
Poster un nouveau sujet Répondre au sujet  [ 5 messages ] 

Heures au format UTC + 1 heure [ Heure d’été ]


Qui est en ligne

Utilisateurs parcourant ce forum: Aucun utilisateur enregistré et 2 invités


Vous ne pouvez pas poster de nouveaux sujets
Vous ne pouvez pas répondre aux sujets
Vous ne pouvez pas éditer vos messages
Vous ne pouvez pas supprimer vos messages

Aller à:  
Flux RSS Flux RSS Liste des flux Liste des flux
0 Développé par phpBB® Forum Software © phpBB Group
Traduction par phpBB-fr.com
phpBB SEO